Time;durP1;ratioP1;P1;durP2;ratioP2;P2;SDS_P1;SDS_P2;PMS_P1;PMS_P2;Temp;Humidity;BMP_temperature;BMP_pressure;BME280_temperature;BME280_humidity;BME280_pressure;Samples;Min_cycle;Max_cycle;Signal;HPM_P1;HPM_P2
2021/11/22 00:00:27;;;;;;;5.80;2.12;;;;;;;4.61;73.97;101063.57;1744951;82;22439;-73
2021/11/22 00:02:59;;;;;;;5.47;1.75;;;;;;;4.52;73.93;101059.16;1744778;82;21118;-73
2021/11/22 00:05:25;;;;;;;4.42;1.95;;;;;;;4.45;73.95;101061.86;1744318;82;21066;-73
2021/11/22 00:07:53;;;;;;;3.92;1.85;;;;;;;4.39;73.90;101071.92;1737455;82;21618;-74
2021/11/22 00:10:23;;;;;;;6.28;2.00;;;;;;;4.34;73.91;101073.41;1744968;82;21047;-73
2021/11/22 00:12:50;;;;;;;4.62;1.72;;;;;;;4.28;73.91;101073.96;1744913;82;21768;-72
2021/11/22 00:15:17;;;;;;;3.83;1.98;;;;;;;4.23;73.90;101076.71;1744792;82;21431;-72
2021/11/22 00:17:46;;;;;;;8.15;2.40;;;;;;;4.18;73.93;101082.95;1744695;82;21126;-72
2021/11/22 00:20:15;;;;;;;5.28;2.30;;;;;;;4.12;73.91;101080.42;1744654;81;21142;-72
2021/11/22 00:22:43;;;;;;;5.17;2.00;;;;;;;4.06;73.96;101087.48;1744765;82;21066;-72
2021/11/22 00:25:13;;;;;;;4.12;1.95;;;;;;;3.98;74.00;101092.27;1744798;82;21780;-72
2021/11/22 00:27:40;;;;;;;4.35;2.05;;;;;;;3.92;74.08;101094.50;1744669;82;21058;-73
2021/11/22 00:30:07;;;;;;;5.45;2.30;;;;;;;3.83;74.17;101092.28;1744933;82;21023;-72
2021/11/22 00:32:37;;;;;;;5.70;2.27;;;;;;;3.78;74.24;101103.24;1744761;81;21694;-73
2021/11/22 00:35:06;;;;;;;5.20;2.42;;;;;;;3.73;74.35;101108.16;1744861;82;21023;-72
2021/11/22 00:37:36;;;;;;;4.90;2.17;;;;;;;3.68;74.46;101105.72;1744661;82;21949;-72
2021/11/22 00:40:04;;;;;;;5.47;2.50;;;;;;;3.67;74.60;101108.70;1744712;82;21875;-72
2021/11/22 00:42:31;;;;;;;4.75;2.40;;;;;;;3.66;74.61;101108.61;1745039;82;21090;-73
2021/11/22 00:44:58;;;;;;;5.25;2.55;;;;;;;3.63;74.63;101104.55;1745007;82;21137;-72
2021/11/22 00:47:31;;;;;;;5.40;2.37;;;;;;;3.61;74.65;101107.47;1744802;82;21208;-72
2021/11/22 00:49:59;;;;;;;4.70;2.52;;;;;;;3.60;74.71;101111.75;1744333;82;21931;-73
2021/11/22 00:52:28;;;;;;;6.70;2.65;;;;;;;3.59;74.72;101112.98;1744644;82;21146;-72
2021/11/22 00:54:54;;;;;;;7.55;2.58;;;;;;;3.57;74.72;101112.00;1751161;81;21528;-72
2021/11/22 00:57:21;;;;;;;5.33;2.80;;;;;;;3.53;74.73;101115.20;1752530;81;21082;-72
2021/11/22 00:59:51;;;;;;;5.50;2.62;;;;;;;3.48;74.71;101111.94;1752844;81;21097;-73
2021/11/22 01:02:16;;;;;;;6.53;2.52;;;;;;;3.43;74.77;101112.06;1752508;81;22404;-73
2021/11/22 01:04:43;;;;;;;6.17;2.83;;;;;;;3.39;74.79;101115.30;1752704;81;21633;-72
2021/11/22 01:07:15;;;;;;;7.50;2.85;;;;;;;3.38;74.79;101120.39;1752157;81;21065;-73
2021/11/22 01:09:40;;;;;;;9.20;3.12;;;;;;;3.33;74.81;101114.94;1752348;81;21199;-73
2021/11/22 01:12:11;;;;;;;10.10;2.75;;;;;;;3.31;74.86;101126.95;1752746;81;21077;-73
2021/11/22 01:14:37;;;;;;;8.10;2.92;;;;;;;3.29;74.90;101129.45;1753048;81;21783;-73
2021/11/22 01:17:04;;;;;;;6.20;2.45;;;;;;;3.27;74.93;101131.48;1752677;81;21042;-73
2021/11/22 01:19:34;;;;;;;4.80;2.83;;;;;;;3.25;74.92;101131.80;1752552;81;21038;-73
2021/11/22 01:22:05;;;;;;;8.18;2.30;;;;;;;3.19;74.92;101133.62;1752845;81;21062;-73
2021/11/22 01:24:29;;;;;;;5.22;2.45;;;;;;;3.15;75.00;101142.02;1752431;81;21066;-73
2021/11/22 01:26:56;;;;;;;5.65;2.40;;;;;;;3.10;75.04;101141.75;1752967;81;21701;-73
2021/11/22 01:29:27;;;;;;;6.15;2.80;;;;;;;3.07;75.16;101148.47;1752379;81;21070;-73
2021/11/22 01:31:52;;;;;;;8.08;2.92;;;;;;;3.03;75.24;101146.49;1752587;81;21533;-73
2021/11/22 01:34:19;;;;;;;6.50;2.55;;;;;;;3.00;75.29;101151.48;1753131;81;21551;-73
2021/11/22 01:36:46;;;;;;;6.58;2.52;;;;;;;2.97;75.41;101148.72;1752915;81;21058;-73
2021/11/22 01:39:14;;;;;;;8.00;3.10;;;;;;;2.96;75.48;101146.50;1752278;81;21631;-73
2021/11/22 01:41:41;;;;;;;5.37;2.40;;;;;;;3.01;75.60;101153.30;1752890;81;21050;-74
2021/11/22 01:44:08;;;;;;;6.90;2.50;;;;;;;3.05;75.62;101152.27;1753172;81;21588;-73
2021/11/22 01:46:35;;;;;;;5.45;2.80;;;;;;;3.07;75.57;101154.97;1752968;81;21054;-73
2021/11/22 01:49:03;;;;;;;7.42;2.62;;;;;;;3.06;75.53;101154.08;1753214;81;21074;-73
2021/11/22 01:51:31;;;;;;;5.55;2.70;;;;;;;3.05;75.50;101153.98;1752644;81;21089;-73
2021/11/22 01:53:59;;;;;;;6.40;2.33;;;;;;;3.03;75.45;101154.30;1747511;81;21086;-73
2021/11/22 01:56:28;;;;;;;8.00;2.70;;;;;;;3.00;75.47;101160.18;1737464;82;21084;-73
2021/11/22 01:58:58;;;;;;;8.00;3.00;;;;;;;2.99;75.49;101162.30;1737457;82;21079;-73
2021/11/22 02:01:25;;;;;;;6.58;3.05;;;;;;;2.97;75.46;101162.61;1737964;82;21604;-72
2021/11/22 02:03:52;;;;;;;8.18;3.33;;;;;;;2.95;75.53;101165.90;1738037;82;22546;-73
2021/11/22 02:06:18;;;;;;;6.60;3.00;;;;;;;2.95;75.59;101172.02;1737916;82;21525;-73
2021/11/22 02:08:45;;;;;;;6.25;2.85;;;;;;;2.95;75.50;101171.09;1738027;82;21122;-72
2021/11/22 02:11:14;;;;;;;4.17;1.92;;;;;;;2.92;75.41;101172.70;1738087;82;21122;-73
2021/11/22 02:13:41;;;;;;;4.97;2.22;;;;;;;2.87;75.30;101179.34;1737877;82;21087;-73
2021/11/22 02:16:08;;;;;;;7.30;2.20;;;;;;;2.84;75.28;101180.85;1738086;82;21713;-73
2021/11/22 02:18:35;;;;;;;4.78;1.77;;;;;;;2.81;75.23;101179.34;1737911;82;21637;-73
2021/11/22 02:21:02;;;;;;;5.17;1.95;;;;;;;2.79;75.27;101182.25;1737948;82;21051;-73
2021/11/22 02:23:28;;;;;;;7.25;2.30;;;;;;;2.77;75.24;101185.16;1738125;82;21040;-73
2021/11/22 02:25:55;;;;;;;5.83;1.80;;;;;;;2.74;75.25;101191.08;1738358;82;21142;-73
2021/11/22 02:28:22;;;;;;;6.08;2.05;;;;;;;2.75;75.30;101195.87;1738029;82;22593;-73
2021/11/22 02:30:53;;;;;;;3.35;1.65;;;;;;;2.73;75.36;101200.55;1734525;82;21099;-72
2021/11/22 02:33:24;;;;;;;4.78;1.92;;;;;;;2.75;75.45;101201.06;1738025;82;21067;-72
2021/11/22 02:35:54;;;;;;;3.12;1.87;;;;;;;2.78;75.54;101202.16;1737915;82;21719;-72
2021/11/22 02:38:22;;;;;;;5.37;2.08;;;;;;;2.83;75.56;101215.44;1737961;82;21012;-72
2021/11/22 02:40:51;;;;;;;5.45;1.80;;;;;;;2.87;75.62;101212.23;1734932;82;21067;-72
2021/11/22 02:43:22;;;;;;;6.00;2.35;;;;;;;2.94;75.64;101214.83;1737853;81;21557;-72
2021/11/22 02:45:49;;;;;;;6.37;2.08;;;;;;;2.97;75.56;101217.22;1738020;82;21082;-73
2021/11/22 02:48:19;;;;;;;5.28;1.75;;;;;;;2.96;75.43;101213.22;1737942;82;21628;-72
2021/11/22 02:50:46;;;;;;;7.35;2.30;;;;;;;2.94;75.41;101215.72;1737392;82;21064;-73
2021/11/22 02:53:13;;;;;;;3.75;1.87;;;;;;;2.90;75.49;101222.42;1738450;82;21805;-72
2021/11/22 02:55:40;;;;;;;5.80;1.98;;;;;;;2.88;75.59;101227.92;1743878;81;21117;-72
2021/11/22 02:58:07;;;;;;;3.70;1.62;;;;;;;2.89;75.73;101230.12;1744846;82;21067;-72
2021/11/22 03:00:36;;;;;;;4.35;1.55;;;;;;;2.88;75.85;101232.23;1744604;82;21075;-72
2021/11/22 03:03:04;;;;;;;4.53;1.80;;;;;;;2.87;76.06;101230.05;1744947;82;21086;-73
2021/11/22 03:05:30;;;;;;;4.17;1.82;;;;;;;2.88;76.16;101234.43;1744882;82;21767;-72
2021/11/22 03:08:00;;;;;;;4.40;1.62;;;;;;;2.88;76.28;101235.73;1744890;82;21004;-72
2021/11/22 03:10:28;;;;;;;4.70;1.70;;;;;;;2.88;76.36;101243.53;1744770;82;21584;-72
2021/11/22 03:13:00;;;;;;;3.33;1.40;;;;;;;2.89;76.45;101243.12;1744437;82;21055;-72
2021/11/22 03:15:25;;;;;;;3.22;1.30;;;;;;;2.92;76.55;101248.53;1744511;82;21086;-72
2021/11/22 03:17:52;;;;;;;2.83;1.35;;;;;;;2.96;76.68;101253.11;1744693;82;21808;-72
2021/11/22 03:20:20;;;;;;;7.85;1.45;;;;;;;3.07;77.00;101256.00;1744733;82;21716;-72
2021/11/22 03:22:47;;;;;;;2.70;1.50;;;;;;;3.19;77.18;101251.98;1744919;82;21515;-72
2021/11/22 03:25:16;;;;;;;7.83;1.90;;;;;;;3.27;77.25;101252.47;1744854;82;21675;-72
2021/11/22 03:27:47;;;;;;;3.92;1.70;;;;;;;3.29;77.18;101257.36;1744770;82;21658;-72
2021/11/22 03:30:13;;;;;;;4.87;1.62;;;;;;;3.29;77.09;101254.34;1744727;82;21781;-72
2021/11/22 03:32:40;;;;;;;3.60;1.67;;;;;;;3.27;77.10;101260.27;1744922;82;21070;-71
2021/11/22 03:35:09;;;;;;;3.60;1.50;;;;;;;3.25;77.13;101266.67;1738022;82;21530;-72
2021/11/22 03:37:36;;;;;;;5.35;1.90;;;;;;;3.25;77.18;101264.48;1744633;82;21051;-72
2021/11/22 03:40:04;;;;;;;5.35;1.87;;;;;;;3.24;77.19;101271.77;1744799;82;21734;-73
2021/11/22 03:42:53;;;;;;;3.85;1.82;;;;;;;3.23;77.23;101266.98;1744406;82;21039;-72
2021/11/22 03:45:11;;;;;;;4.55;2.05;;;;;;;3.26;77.39;101268.45;1744483;82;21078;-72
2021/11/22 03:47:38;;;;;;;4.37;1.90;;;;;;;3.33;77.54;101268.45;1745169;81;21091;-72
2021/11/22 03:50:06;;;;;;;4.55;1.95;;;;;;;3.40;77.47;101274.95;1744966;82;21109;-72
2021/11/22 03:52:33;;;;;;;10.20;2.15;;;;;;;3.37;77.28;101280.84;1745177;82;21070;-72
2021/11/22 03:55:02;;;;;;;5.60;1.95;;;;;;;3.33;77.16;101278.86;1744816;82;21742;-72
2021/11/22 03:57:28;;;;;;;3.50;1.80;;;;;;;3.27;77.17;101277.18;1744944;82;21540;-73
2021/11/22 03:59:57;;;;;;;5.65;1.85;;;;;;;3.21;77.16;101276.77;1745244;82;21071;-72
2021/11/22 04:02:24;;;;;;;5.25;1.90;;;;;;;3.14;77.23;101283.31;1744272;82;21573;-72
2021/11/22 04:04:51;;;;;;;4.67;2.05;;;;;;;3.07;77.28;101279.81;1745294;82;21136;-72
2021/11/22 04:07:18;;;;;;;6.55;2.22;;;;;;;2.99;77.35;101281.93;1745247;81;21748;-72
2021/11/22 04:09:44;;;;;;;4.85;2.10;;;;;;;2.92;77.43;101280.63;1744912;82;21537;-72
2021/11/22 04:12:12;;;;;;;5.00;2.10;;;;;;;2.85;77.40;101285.33;1745272;82;21544;-72
2021/11/22 04:14:38;;;;;;;4.03;2.20;;;;;;;2.80;77.53;101291.55;1744909;82;21070;-72
2021/11/22 04:17:05;;;;;;;5.12;1.90;;;;;;;2.75;77.63;101288.15;1744878;82;21082;-71
2021/11/22 04:19:32;;;;;;;5.30;2.35;;;;;;;2.71;77.74;101296.15;1744953;82;21713;-72
2021/11/22 04:21:59;;;;;;;5.20;2.10;;;;;;;2.71;77.90;101297.45;1744842;82;21620;-72
2021/11/22 04:24:26;;;;;;;7.33;2.45;;;;;;;2.73;78.02;101303.23;1744834;82;22299;-72
2021/11/22 04:26:52;;;;;;;4.22;2.27;;;;;;;2.75;78.05;101303.75;1744677;82;21051;-73
2021/11/22 04:29:21;;;;;;;3.77;2.00;;;;;;;2.73;78.03;101311.03;1737197;82;21274;-72
2021/11/22 04:31:47;;;;;;;5.00;2.30;;;;;;;2.73;78.16;101314.94;1744735;82;21761;-72
2021/11/22 04:34:14;;;;;;;5.15;1.98;;;;;;;2.81;78.37;101319.73;1744648;82;21114;-71
2021/11/22 04:36:41;;;;;;;3.92;1.82;;;;;;;2.91;78.53;101324.76;1744624;82;21360;-72
2021/11/22 04:39:08;;;;;;;4.08;1.75;;;;;;;3.03;78.54;101328.54;1744716;82;21528;-72
2021/11/22 04:41:34;;;;;;;4.75;2.02;;;;;;;3.12;78.48;101333.04;1744718;81;21703;-72
2021/11/22 04:44:02;;;;;;;5.50;2.45;;;;;;;3.15;78.26;101331.91;1744784;82;21727;-71
2021/11/22 04:46:30;;;;;;;6.12;2.65;;;;;;;3.17;78.22;101335.51;1744528;82;21074;-71
2021/11/22 04:48:57;;;;;;;8.30;3.45;;;;;;;3.20;78.26;101331.81;1744704;81;21678;-72
2021/11/22 04:51:24;;;;;;;5.15;3.12;;;;;;;3.26;78.40;101332.20;1744666;82;21534;-72
2021/11/22 04:53:51;;;;;;;4.10;2.08;;;;;;;3.36;78.46;101337.61;1744602;82;21126;-72
2021/11/22 04:56:18;;;;;;;3.67;1.92;;;;;;;3.41;78.38;101341.79;1744495;81;22537;-72
2021/11/22 04:58:45;;;;;;;6.78;2.92;;;;;;;3.45;78.34;101347.68;1744352;82;21075;-72
2021/11/22 05:01:12;;;;;;;7.37;4.00;;;;;;;3.43;78.17;101359.70;1744858;82;21058;-72
2021/11/22 05:03:42;;;;;;;6.30;3.10;;;;;;;3.33;78.03;101350.83;1723885;81;21083;-71
2021/11/22 05:06:08;;;;;;;5.50;2.25;;;;;;;3.25;77.98;101356.84;1714917;83;21564;-72
2021/11/22 05:08:39;;;;;;;4.60;1.55;;;;;;;3.16;78.08;101360.15;1714671;83;21745;-73
2021/11/22 05:11:04;;;;;;;4.42;1.95;;;;;;;3.09;78.16;101364.04;1713928;83;21039;-72
2021/11/22 05:13:32;;;;;;;3.85;1.98;;;;;;;3.06;78.36;101365.13;1684290;83;21078;-72
2021/11/22 05:15:59;;;;;;;5.72;2.20;;;;;;;3.05;78.50;101361.64;1714841;83;21134;-72
2021/11/22 05:18:26;;;;;;;6.92;2.55;;;;;;;3.01;78.38;101372.65;1688519;83;21109;-74
2021/11/22 05:20:53;;;;;;;6.92;2.83;;;;;;;2.96;78.33;101371.44;1715063;83;22359;-74
2021/11/22 05:23:19;;;;;;;5.05;2.92;;;;;;;2.88;78.39;101367.03;1714641;83;21098;-73
2021/11/22 05:25:49;;;;;;;6.50;3.25;;;;;;;2.84;78.54;101370.66;1714735;83;22260;-82
2021/11/22 05:28:16;;;;;;;7.25;3.65;;;;;;;2.82;78.57;101374.44;1715117;83;21153;-82
2021/11/22 05:30:43;;;;;;;7.50;3.80;;;;;;;2.79;78.49;101373.34;1714671;83;21040;-75
2021/11/22 05:33:10;;;;;;;5.83;3.83;;;;;;;2.71;78.41;101375.43;1708365;83;21750;-75
2021/11/22 05:35:37;;;;;;;8.80;4.37;;;;;;;2.64;78.42;101375.81;1714799;83;21046;-71
2021/11/22 05:38:05;;;;;;;6.53;3.50;;;;;;;2.57;78.51;101383.59;1714475;83;21133;-72
2021/11/22 05:40:35;;;;;;;8.70;3.80;;;;;;;2.56;78.72;101391.30;1714782;83;21125;-71
2021/11/22 05:43:06;;;;;;;9.95;3.98;;;;;;;2.54;78.79;101400.29;1709729;83;21109;-71
2021/11/22 05:45:33;;;;;;;9.50;3.87;;;;;;;2.55;78.89;101400.77;1714954;83;21763;-72
2021/11/22 05:48:05;;;;;;;7.65;4.00;;;;;;;2.57;79.05;101402.19;1714890;83;21074;-72
2021/11/22 05:50:33;;;;;;;12.78;4.20;;;;;;;2.64;79.19;101400.50;1710264;83;21094;-72
2021/11/22 05:53:01;;;;;;;13.13;4.10;;;;;;;2.66;79.13;101406.70;1715080;83;21086;-72
2021/11/22 05:55:41;;;;;;;7.33;3.75;;;;;;;2.72;79.31;101413.61;1718052;83;21108;-72
2021/11/22 05:58:11;;;;;;;9.08;3.80;;;;;;;2.81;79.39;101414.64;1722453;83;21822;-72
2021/11/22 06:00:38;;;;;;;7.00;3.08;;;;;;;2.89;79.42;101418.63;1722307;83;21300;-72
2021/11/22 06:03:08;;;;;;;6.05;2.75;;;;;;;3.00;79.48;101418.95;1722703;83;21218;-72
2021/11/22 06:05:37;;;;;;;8.40;2.80;;;;;;;3.07;79.46;101425.47;1694024;83;21659;-72
2021/11/22 06:08:07;;;;;;;5.85;2.62;;;;;;;3.14;79.65;101426.78;1722794;83;21073;-71
2021/11/22 06:10:33;;;;;;;3.42;2.00;;;;;;;3.23;79.69;101423.45;1722887;83;22476;-72
2021/11/22 06:13:00;;;;;;;3.70;2.10;;;;;;;3.30;79.72;101426.97;1722788;83;21054;-71
2021/11/22 06:15:27;;;;;;;4.53;2.30;;;;;;;3.37;79.65;101432.18;1722876;83;21555;-72
2021/11/22 06:17:54;;;;;;;3.70;1.87;;;;;;;3.39;79.69;101434.48;1722792;83;21697;-72
2021/11/22 06:20:21;;;;;;;2.05;1.47;;;;;;;3.42;79.68;101440.78;1722768;83;21567;-72
2021/11/22 06:22:47;;;;;;;3.75;1.75;;;;;;;3.41;79.51;101438.97;1722760;83;21760;-72
2021/11/22 06:25:14;;;;;;;3.85;1.75;;;;;;;3.40;79.55;101445.41;1722854;83;21049;-72
2021/11/22 06:27:41;;;;;;;2.67;1.52;;;;;;;3.40;79.57;101437.59;1723015;83;21583;-72
2021/11/22 06:30:08;;;;;;;3.95;1.30;;;;;;;3.40;79.61;101450.61;1722977;83;21086;-72
2021/11/22 06:32:34;;;;;;;1.72;1.20;;;;;;;3.43;79.71;101450.78;1722787;83;21062;-71
2021/11/22 06:35:01;;;;;;;2.25;1.22;;;;;;;3.46;79.70;101457.09;1722838;83;22119;-71
2021/11/22 06:37:32;;;;;;;1.57;1.32;;;;;;;3.51;79.72;101469.12;1721927;83;21106;-72
2021/11/22 06:39:58;;;;;;;1.98;1.25;;;;;;;3.54;79.75;101464.50;1722612;83;21082;-72
2021/11/22 06:42:25;;;;;;;3.70;1.20;;;;;;;3.58;79.81;101475.20;1722853;83;21123;-72
2021/11/22 06:44:51;;;;;;;4.37;1.52;;;;;;;3.64;79.95;101470.41;1722938;83;21551;-72
2021/11/22 06:47:18;;;;;;;3.65;1.10;;;;;;;3.75;79.95;101468.47;1722831;83;21756;-72
2021/11/22 06:49:45;;;;;;;3.58;1.77;;;;;;;3.78;79.79;101471.28;1722889;83;21046;-72
2021/11/22 06:52:13;;;;;;;4.37;2.40;;;;;;;3.78;79.70;101475.19;1723218;83;21061;-72
2021/11/22 06:54:40;;;;;;;4.45;2.80;;;;;;;3.78;79.60;101484.72;1722727;83;21110;-72
2021/11/22 06:57:07;;;;;;;5.15;3.30;;;;;;;3.74;79.55;101486.22;1722403;83;21109;-71
2021/11/22 06:59:34;;;;;;;7.10;4.03;;;;;;;3.70;79.64;101488.13;1722781;83;21738;-72
2021/11/22 07:02:01;;;;;;;5.58;3.87;;;;;;;3.70;79.66;101492.03;1722330;83;21054;-72
2021/11/22 07:04:28;;;;;;;8.38;4.40;;;;;;;3.68;79.66;101500.16;1722853;83;21678;-72
2021/11/22 07:06:55;;;;;;;7.20;4.28;;;;;;;3.69;79.77;101505.84;1722672;83;21098;-72
2021/11/22 07:09:22;;;;;;;8.58;4.05;;;;;;;3.74;79.81;101510.95;1722633;83;21647;-71
2021/11/22 07:11:49;;;;;;;9.43;3.90;;;;;;;3.77;79.80;101516.75;1722670;83;22429;-72
2021/11/22 07:14:16;;;;;;;10.13;4.40;;;;;;;3.81;79.88;101512.23;1722684;83;21042;-72
2021/11/22 07:16:43;;;;;;;9.73;4.42;;;;;;;3.88;79.88;101521.84;1722605;83;21198;-71
2021/11/22 07:19:10;;;;;;;8.98;4.53;;;;;;;3.93;79.81;101513.03;1722790;83;21102;-72
2021/11/22 07:21:36;;;;;;;14.00;5.30;;;;;;;3.93;79.64;101512.14;1722838;83;21579;-72
2021/11/22 07:24:05;;;;;;;10.75;4.90;;;;;;;3.88;79.50;101511.83;1722684;83;22519;-72
2021/11/22 07:26:32;;;;;;;11.35;5.30;;;;;;;3.79;79.42;101510.86;1722634;83;21078;-72
2021/11/22 07:28:58;;;;;;;11.85;5.40;;;;;;;3.77;79.41;101518.94;1722811;83;21050;-72
2021/11/22 07:31:25;;;;;;;8.00;3.98;;;;;;;3.72;79.41;101524.66;1722960;83;21050;-72
2021/11/22 07:33:52;;;;;;;11.73;4.67;;;;;;;3.67;79.53;101529.17;1722958;83;21606;-72
2021/11/22 07:36:18;;;;;;;7.80;4.35;;;;;;;3.67;79.64;101536.98;1723073;83;21755;-72
2021/11/22 07:38:45;;;;;;;6.30;3.67;;;;;;;3.67;79.72;101536.09;1723125;83;21028;-71
2021/11/22 07:41:12;;;;;;;8.85;4.25;;;;;;;3.67;79.79;101542.19;1722824;83;21062;-72
2021/11/22 07:43:39;;;;;;;8.00;4.20;;;;;;;3.69;79.87;101543.59;1722980;83;21573;-71
2021/11/22 07:46:05;;;;;;;8.85;4.78;;;;;;;3.75;80.06;101547.00;1722798;83;21085;-71
2021/11/22 07:48:32;;;;;;;11.22;5.03;;;;;;;3.83;80.16;101553.22;1722906;83;22549;-72
2021/11/22 07:50:59;;;;;;;17.95;10.23;;;;;;;3.95;80.29;101554.41;1722890;83;21106;-72
2021/11/22 07:53:26;;;;;;;7.95;4.30;;;;;;;4.08;80.31;101559.59;1722847;83;21073;-72
2021/11/22 07:55:53;;;;;;;6.20;3.60;;;;;;;4.23;80.15;101567.49;1722283;83;21328;-72
2021/11/22 07:58:20;;;;;;;5.37;3.17;;;;;;;4.33;79.94;101564.17;1722324;83;21654;-72
2021/11/22 08:00:46;;;;;;;6.03;3.50;;;;;;;4.42;79.72;101564.34;1722632;83;21716;-72
2021/11/22 08:03:13;;;;;;;7.00;3.75;;;;;;;4.53;79.58;101576.75;1722669;83;20988;-72
2021/11/22 08:05:40;;;;;;;5.53;3.35;;;;;;;4.59;79.40;101574.93;1722591;83;21106;-72
2021/11/22 08:08:07;;;;;;;3.87;2.50;;;;;;;4.65;79.29;101580.52;1722614;83;21152;-72
2021/11/22 08:10:35;;;;;;;9.68;3.20;;;;;;;4.64;79.05;101583.54;1722609;83;21633;-72
2021/11/22 08:13:05;;;;;;;9.40;4.00;;;;;;;4.65;79.09;101586.66;1722793;83;21837;-72
2021/11/22 08:15:33;;;;;;;12.80;5.40;;;;;;;4.70;79.21;101598.66;1722886;83;21090;-72
2021/11/22 08:18:02;;;;;;;14.53;5.85;;;;;;;4.78;79.31;101605.66;1722875;83;21324;-72
2021/11/22 08:20:29;;;;;;;12.85;5.08;;;;;;;4.84;79.38;101604.34;1722228;83;21062;-71
2021/11/22 08:22:55;;;;;;;6.25;4.20;;;;;;;4.90;79.33;101601.59;1722755;83;22275;-72
2021/11/22 08:25:25;;;;;;;7.65;4.15;;;;;;;4.93;79.18;101610.92;1722784;83;22527;-72
2021/11/22 08:27:53;;;;;;;7.70;3.60;;;;;;;4.87;79.05;101616.25;1722780;83;21549;-72
2021/11/22 08:30:21;;;;;;;6.67;3.65;;;;;;;4.83;78.90;101619.48;1722986;83;21907;-72
2021/11/22 08:32:49;;;;;;;8.38;4.22;;;;;;;4.90;79.16;101617.24;1722450;83;22193;-72
2021/11/22 08:35:16;;;;;;;8.20;4.00;;;;;;;5.11;79.55;101630.32;1722748;83;21540;-72
2021/11/22 08:37:43;;;;;;;11.45;4.30;;;;;;;5.38;79.59;101627.16;1722731;83;21870;-72
2021/11/22 08:40:13;;;;;;;7.60;3.75;;;;;;;5.55;79.13;101625.55;1722651;83;21070;-71
2021/11/22 08:42:40;;;;;;;7.55;4.03;;;;;;;5.70;78.85;101630.78;1722848;83;21089;-71
2021/11/22 08:45:07;;;;;;;13.80;3.87;;;;;;;5.79;78.58;101634.35;1722838;83;21122;-71
2021/11/22 08:47:34;;;;;;;4.72;2.42;;;;;;;5.94;78.50;101633.04;1722530;83;21089;-72
2021/11/22 08:50:01;;;;;;;5.12;2.45;;;;;;;6.03;77.86;101639.73;1722577;83;21697;-71
2021/11/22 08:52:27;;;;;;;3.85;2.08;;;;;;;6.09;77.99;101637.87;1722767;83;21551;-71
2021/11/22 08:54:54;;;;;;;3.67;2.10;;;;;;;6.19;77.52;101641.52;1722625;83;21058;-72
2021/11/22 08:57:21;;;;;;;6.35;2.50;;;;;;;6.19;76.99;101642.83;1716201;83;21203;-71
2021/11/22 08:59:47;;;;;;;6.67;1.85;;;;;;;6.17;77.04;101648.77;1714762;83;21304;-72
2021/11/22 09:02:15;;;;;;;5.10;1.85;;;;;;;6.11;76.71;101638.86;1715121;83;22303;-72
2021/11/22 09:04:42;;;;;;;2.15;1.80;;;;;;;6.01;76.54;101643.08;1715108;83;21070;-72
2021/11/22 09:07:08;;;;;;;3.47;1.57;;;;;;;5.94;76.41;101641.77;1715126;83;21590;-72
2021/11/22 09:09:35;;;;;;;3.27;1.70;;;;;;;5.89;76.25;101655.38;1715240;83;21031;-72
2021/11/22 09:12:02;;;;;;;2.55;1.67;;;;;;;5.84;76.27;101652.52;1715324;83;21089;-72
2021/11/22 09:14:29;;;;;;;2.70;1.80;;;;;;;5.90;76.67;101654.17;1715071;83;21817;-72
2021/11/22 09:16:55;;;;;;;2.55;1.72;;;;;;;6.02;76.58;101657.92;1715122;83;21533;-72
2021/11/22 09:19:22;;;;;;;5.05;2.15;;;;;;;6.06;76.20;101659.00;1715153;83;21071;-72
2021/11/22 09:21:49;;;;;;;6.40;1.67;;;;;;;6.04;75.63;101658.91;1715039;83;21138;-72
2021/11/22 09:24:15;;;;;;;3.52;2.20;;;;;;;5.90;75.23;101661.12;1715030;83;21164;-72
2021/11/22 09:26:42;;;;;;;2.60;1.55;;;;;;;5.81;75.17;101658.44;1714904;83;21821;-72
2021/11/22 09:29:09;;;;;;;3.10;1.70;;;;;;;5.84;75.17;101666.47;1714824;83;21858;-72
2021/11/22 09:31:36;;;;;;;2.05;1.20;;;;;;;5.85;74.91;101666.05;1714709;83;21046;-72
2021/11/22 09:34:02;;;;;;;2.65;1.50;;;;;;;5.84;74.10;101666.47;1714864;83;21571;-72
2021/11/22 09:36:29;;;;;;;2.17;1.27;;;;;;;5.83;73.92;101669.88;1714990;83;21089;-73
2021/11/22 09:38:56;;;;;;;2.10;1.12;;;;;;;5.84;73.44;101669.08;1714804;83;22499;-72
2021/11/22 09:41:26;;;;;;;4.78;0.85;;;;;;;5.80;72.98;101666.18;1714925;83;21138;-73
2021/11/22 09:43:51;;;;;;;1.52;0.80;;;;;;;5.73;72.32;101666.66;1714899;83;21074;-72
2021/11/22 09:46:18;;;;;;;1.30;0.82;;;;;;;5.62;72.37;101668.20;1714978;83;21533;-73
2021/11/22 09:48:45;;;;;;;2.33;0.80;;;;;;;5.47;71.81;101679.05;1715023;83;21627;-72
2021/11/22 09:51:12;;;;;;;1.65;0.90;;;;;;;5.35;72.06;101681.83;1714852;83;21699;-72
2021/11/22 09:53:40;;;;;;;2.25;1.00;;;;;;;5.28;72.34;101686.16;1715006;83;21046;-73
2021/11/22 09:56:10;;;;;;;4.53;1.32;;;;;;;5.24;72.28;101686.79;1714924;83;21155;-73
2021/11/22 09:58:38;;;;;;;1.77;0.93;;;;;;;5.16;72.38;101688.93;1714721;83;21102;-72
2021/11/22 10:01:12;;;;;;;4.58;0.78;;;;;;;5.14;72.83;101692.23;1714761;83;21066;-72
2021/11/22 10:03:37;;;;;;;2.35;1.37;;;;;;;5.17;72.52;101692.02;1715227;83;21756;-72
2021/11/22 10:06:04;;;;;;;3.62;2.60;;;;;;;5.22;72.51;101698.44;1715228;83;21062;-72
2021/11/22 10:08:42;;;;;;;6.12;2.35;;;;;;;5.26;72.36;101694.31;1715109;83;21078;-72
2021/11/22 10:11:09;;;;;;;1.95;1.12;;;;;;;5.34;72.34;101690.86;1715163;83;21086;-72
2021/11/22 10:13:41;;;;;;;3.12;1.00;;;;;;;5.36;71.92;101687.52;1715107;83;21109;-72
2021/11/22 10:16:21;;;;;;;2.17;0.82;;;;;;;5.38;71.80;101687.63;1714322;83;21799;-72
2021/11/22 10:18:55;;;;;;;3.58;1.50;;;;;;;5.38;71.60;101691.13;1715104;83;21572;-72
2021/11/22 10:21:37;;;;;;;1.45;0.93;;;;;;;5.42;71.67;101684.38;1715121;83;21077;-72
2021/11/22 10:24:07;;;;;;;3.37;0.85;;;;;;;5.52;71.73;101689.75;1715228;83;21122;-72
2021/11/22 10:26:42;;;;;;;2.85;0.90;;;;;;;5.61;71.71;101683.78;1715202;83;21294;-72
2021/11/22 10:29:11;;;;;;;1.55;1.10;;;;;;;5.72;71.59;101689.66;1715457;83;22688;-72
2021/11/22 10:31:38;;;;;;;2.77;1.30;;;;;;;5.77;71.55;101697.38;1715116;83;21058;-72
2021/11/22 10:34:06;;;;;;;4.62;1.17;;;;;;;5.79;71.51;101699.25;1714859;83;21077;-72
2021/11/22 10:36:37;;;;;;;5.87;2.10;;;;;;;5.83;71.66;101697.31;1714940;83;21113;-72
2021/11/22 10:39:01;;;;;;;2.45;1.30;;;;;;;5.90;71.33;101699.89;1714871;83;21133;-72
2021/11/22 10:41:31;;;;;;;4.35;2.47;;;;;;;5.86;70.84;101699.23;1715032;83;21705;-72
2021/11/22 10:44:12;;;;;;;5.25;3.70;;;;;;;5.80;70.94;101698.45;1684503;83;21079;-72
2021/11/22 10:46:53;;;;;;;4.80;2.90;;;;;;;5.83;71.35;101702.95;1715091;83;21078;-72
2021/11/22 10:49:33;;;;;;;3.72;2.10;;;;;;;5.81;71.16;101702.86;1715111;83;21787;-72
2021/11/22 10:54:59;;;;;;;3.98;1.67;;;;;;;5.72;71.34;101705.33;1715250;83;21798;-71
2021/11/22 10:57:47;;;;;;;3.40;1.57;;;;;;;5.65;71.05;101711.91;1719349;83;21130;-71
2021/11/22 11:00:25;;;;;;;3.65;1.45;;;;;;;5.64;71.23;101708.37;1722466;83;21042;-72
2021/11/22 11:02:57;;;;;;;3.75;1.77;;;;;;;5.68;71.39;101700.33;1722610;83;21085;-72
2021/11/22 11:05:33;;;;;;;2.25;1.12;;;;;;;5.75;71.53;101708.14;1722779;83;21035;-72
2021/11/22 11:08:11;;;;;;;3.12;1.02;;;;;;;5.83;71.62;101710.79;1722515;83;22586;-72
2021/11/22 11:10:39;;;;;;;1.47;0.72;;;;;;;5.85;71.42;101710.47;1722721;83;21626;-71
2021/11/22 11:13:06;;;;;;;1.50;0.80;;;;;;;5.92;71.29;101705.22;1722797;83;22184;-72
2021/11/22 11:15:33;;;;;;;0.80;0.78;;;;;;;5.99;71.15;101714.84;1722772;83;21632;-72
2021/11/22 11:18:01;;;;;;;1.37;1.05;;;;;;;5.96;70.88;101698.98;1722951;83;21081;-72
2021/11/22 11:20:28;;;;;;;3.77;1.22;;;;;;;6.00;70.94;101707.90;1722996;83;21763;-72
2021/11/22 11:22:55;;;;;;;4.37;1.70;;;;;;;6.05;70.75;101708.19;1722885;83;21078;-72
2021/11/22 11:25:24;;;;;;;3.25;1.52;;;;;;;6.06;70.70;101696.48;1722883;83;21612;-72
2021/11/22 11:27:51;;;;;;;4.47;1.40;;;;;;;6.09;70.59;101704.52;1722883;83;21065;-72
2021/11/22 11:30:20;;;;;;;3.30;1.60;;;;;;;6.11;70.71;101706.81;1723079;83;21105;-71
2021/11/22 11:32:48;;;;;;;8.13;3.25;;;;;;;6.18;70.56;101708.98;1723085;83;21832;-72
2021/11/22 11:35:18;;;;;;;7.37;3.10;;;;;;;6.16;69.82;101701.46;1722950;83;21042;-72
2021/11/22 11:38:16;;;;;;;8.68;4.17;;;;;;;6.18;69.69;101698.94;1723010;83;21078;-72
2021/11/22 11:41:06;;;;;;;5.15;3.58;;;;;;;6.16;69.35;101704.48;1722693;83;21015;-71